Peplin, Wisconsin
Current Conditions -  °F | °C
As of 3:55 AM on Sunday 23 Nov 2014 (Local Time) from KCWA Reporting Station
Light Rain Light Rain  
Wind Chill: 36°   Ceiling: 300
Heat Index: 43°   Visibility: 0mi
Dew Point: 43°   Wind: 13mph
Humidity: 100%   Direction: 170°S
Pressure: 29.59"   Gusts: NA
Location:  44.7605°N, 89.5918°W
Report Text: KCWA 230955Z AUTO 17011KT M1/4SM -RA OVC003 06/06 A2959 RMK AO2
Loading
Personal Weather Stations






























Interactive Weather Map New forecast layout! Learn more

10-Day Weather Forecast

Advertisements
Track Severe Weather on mobile